createdAt,value
2018-08-25T00:00:49.828Z,58.65
2018-08-25T00:03:18.774Z,58.94
2018-08-25T00:05:47.702Z,58.98
2018-08-25T00:08:16.721Z,58.64
2018-08-25T00:10:45.639Z,58.67
2018-08-25T00:13:14.581Z,58.86
2018-08-25T00:15:46.127Z,59.44
2018-08-25T00:18:15.000Z,59.24
2018-08-25T00:20:43.948Z,59.43
2018-08-25T00:23:12.875Z,59.71
2018-08-25T00:25:41.761Z,59.85
2018-08-25T00:28:10.737Z,60.54
2018-08-25T00:30:57.142Z,61.37
2018-08-25T00:33:26.054Z,61.55
2018-08-25T00:35:55.071Z,61.76
2018-08-25T00:38:24.018Z,61.37
2018-08-25T00:40:52.878Z,61.23
2018-08-25T00:43:21.824Z,61.75
2018-08-25T00:45:50.703Z,62.12
2018-08-25T00:48:19.717Z,62.72
2018-08-25T00:50:48.569Z,63.03
2018-08-25T00:53:17.491Z,63.46
2018-08-25T00:55:46.441Z,64.71
2018-08-25T00:58:15.351Z,65.30
2018-08-25T01:00:44.243Z,66.27
2018-08-25T01:03:13.066Z,68.00
2018-08-25T01:05:42.035Z,69.91
2018-08-25T01:08:10.945Z,71.72
2018-08-25T01:10:39.892Z,71.66
2018-08-25T01:13:09.265Z,71.84
2018-08-25T01:15:38.227Z,73.16
2018-08-25T01:18:07.161Z,72.29
2018-08-25T01:20:36.136Z,73.57
2018-08-25T01:23:07.034Z,74.31
2018-08-25T01:25:35.931Z,73.92
2018-08-25T01:28:04.876Z,73.96
2018-08-25T01:30:33.824Z,74.52
2018-08-25T01:33:02.771Z,75.83
2018-08-25T01:35:31.657Z,75.30
2018-08-25T01:38:00.614Z,75.02
2018-08-25T01:40:29.557Z,75.30
2018-08-25T01:42:58.381Z,75.09
2018-08-25T01:45:27.295Z,75.32
2018-08-25T01:47:56.128Z,75.28
2018-08-25T01:50:24.998Z,75.71
2018-08-25T01:52:55.943Z,75.53
2018-08-25T01:55:24.889Z,75.60
2018-08-25T01:57:53.814Z,75.61
2018-08-25T02:00:22.688Z,75.47
2018-08-25T02:02:51.746Z,75.49
2018-08-25T02:05:20.556Z,75.79
2018-08-25T02:07:49.475Z,75.67
2018-08-25T02:10:18.412Z,75.89
2018-08-25T02:12:47.416Z,75.96
2018-08-25T02:15:16.438Z,76.46
2018-08-25T02:17:45.443Z,76.23
2018-08-25T02:20:14.276Z,76.17
2018-08-25T02:22:43.209Z,77.23
2018-08-25T02:25:12.078Z,77.32
2018-08-25T02:27:40.991Z,76.44
2018-08-25T02:30:09.881Z,76.65
2018-08-25T02:32:38.788Z,77.24
2018-08-25T02:35:07.679Z,77.53
2018-08-25T02:37:36.571Z,78.01
2018-08-25T02:40:05.644Z,77.09
2018-08-25T02:42:35.339Z,77.56
2018-08-25T02:45:06.640Z,78.15
2018-08-25T02:47:35.733Z,78.12
2018-08-25T02:50:06.783Z,78.41
2018-08-25T02:52:35.732Z,77.55
2018-08-25T02:55:04.640Z,77.71
2018-08-25T02:57:33.592Z,77.13
2018-08-25T03:00:02.436Z,77.05
2018-08-25T03:02:31.495Z,77.31
2018-08-25T03:05:00.389Z,77.73
2018-08-25T03:07:29.278Z,77.80
2018-08-25T03:09:58.296Z,77.46
2018-08-25T03:12:27.196Z,77.44
2018-08-25T03:14:56.099Z,78.10
2018-08-25T03:17:25.062Z,78.47
2018-08-25T03:19:53.950Z,77.88
2018-08-25T03:22:22.891Z,77.95
2018-08-25T03:24:51.765Z,78.11
2018-08-25T03:27:20.739Z,78.94
2018-08-25T03:29:49.718Z,79.65
2018-08-25T03:32:18.604Z,80.54
2018-08-25T03:34:47.531Z,80.29
2018-08-25T03:37:16.446Z,80.61
2018-08-25T03:39:46.783Z,80.27
2018-08-25T03:42:14.302Z,80.28
2018-08-25T03:44:43.197Z,80.31
2018-08-25T03:47:12.068Z,80.93
2018-08-25T03:49:41.002Z,81.01
2018-08-25T03:52:09.985Z,80.77
2018-08-25T03:54:38.977Z,80.75
2018-08-25T03:57:07.812Z,80.95
2018-08-25T03:59:39.010Z,79.98
2018-08-25T04:02:07.930Z,81.20
2018-08-25T04:04:36.773Z,81.09
2018-08-25T04:07:05.663Z,80.70
2018-08-25T04:09:34.647Z,80.76
2018-08-25T04:12:03.530Z,80.78
2018-08-25T04:14:32.427Z,80.95
2018-08-25T04:17:01.396Z,80.70
2018-08-25T04:19:30.186Z,80.39
2018-08-25T04:21:59.136Z,80.41
2018-08-25T04:24:28.084Z,80.29
2018-08-25T04:26:56.973Z,80.57
2018-08-25T04:29:25.919Z,80.07
2018-08-25T04:31:54.836Z,80.32
2018-08-25T04:34:27.468Z,80.53
2018-08-25T04:36:56.709Z,80.26
2018-08-25T04:39:23.449Z,79.97
2018-08-25T04:41:52.401Z,80.58
2018-08-25T04:44:21.404Z,80.29
2018-08-25T04:46:50.328Z,80.39
2018-08-25T04:49:21.310Z,80.47
2018-08-25T04:51:50.192Z,80.42
2018-08-25T04:54:19.119Z,80.63
2018-08-25T04:56:48.049Z,80.07
2018-08-25T04:59:16.998Z,80.58
2018-08-25T05:01:46.058Z,80.63
2018-08-25T05:04:17.677Z,80.76
2018-08-25T05:06:46.585Z,81.13
2018-08-25T05:09:18.010Z,81.09
2018-08-25T05:11:49.009Z,80.92
2018-08-25T05:14:17.951Z,81.08
2018-08-25T05:16:46.870Z,80.96
2018-08-25T05:19:15.810Z,81.23
2018-08-25T05:21:44.839Z,81.10
2018-08-25T05:24:13.756Z,80.89
2018-08-25T05:26:45.197Z,81.59
2018-08-25T05:29:11.836Z,81.31
2018-08-25T05:31:40.733Z,81.11
2018-08-25T05:34:09.765Z,80.82
2018-08-25T05:36:38.731Z,80.53
2018-08-25T05:39:10.828Z,80.43
2018-08-25T05:41:40.053Z,80.38
2018-08-25T05:44:09.006Z,80.01
2018-08-25T05:46:40.625Z,79.00
2018-08-25T05:49:09.570Z,79.34
2018-08-25T05:51:38.421Z,79.34
2018-08-25T05:54:07.337Z,79.53
2018-08-25T05:56:36.303Z,79.49
2018-08-25T05:59:07.940Z,79.50
2018-08-25T06:01:36.867Z,79.49
2018-08-25T06:04:05.895Z,79.21
2018-08-25T06:06:34.863Z,79.19
2018-08-25T06:09:05.925Z,78.87
2018-08-25T06:11:34.977Z,79.24
2018-08-25T06:14:03.840Z,79.74
2018-08-25T06:16:32.752Z,79.59
2018-08-25T06:19:01.756Z,78.83
2018-08-25T06:21:30.667Z,79.67
2018-08-25T06:23:59.583Z,79.22
2018-08-25T06:26:28.672Z,78.90
2018-08-25T06:28:57.670Z,78.42
2018-08-25T06:31:26.513Z,77.86
2018-08-25T06:33:55.464Z,77.93
2018-08-25T06:36:26.857Z,77.94
2018-08-25T06:38:55.749Z,76.38
2018-08-25T06:41:24.764Z,77.13
2018-08-25T06:43:55.092Z,77.37
2018-08-25T06:46:25.101Z,77.08
2018-08-25T06:48:53.994Z,77.60
2018-08-25T06:51:22.992Z,77.81
2018-08-25T06:53:51.918Z,77.67
2018-08-25T06:56:20.775Z,78.22
2018-08-25T06:58:53.821Z,77.75
2018-08-25T07:01:25.231Z,77.94
2018-08-25T07:03:54.105Z,77.51
2018-08-25T07:06:22.971Z,77.92
2018-08-25T07:08:51.899Z,77.53
2018-08-25T07:11:20.860Z,77.65
2018-08-25T07:13:49.846Z,75.38
2018-08-25T07:16:18.645Z,76.32
2018-08-25T07:18:47.594Z,75.63
2018-08-25T07:21:16.360Z,75.18
2018-08-25T07:23:45.310Z,75.06
2018-08-25T07:26:14.393Z,74.67
2018-08-25T07:28:43.092Z,74.96
2018-08-25T07:31:12.015Z,74.57
2018-08-25T07:33:40.954Z,74.53
2018-08-25T07:36:09.874Z,74.23
2018-08-25T07:38:38.760Z,71.59
2018-08-25T07:41:07.680Z,67.89
2018-08-25T07:43:36.662Z,65.83
2018-08-25T07:46:05.548Z,65.97
2018-08-25T07:48:34.578Z,65.13
2018-08-25T07:51:03.473Z,65.62
2018-08-25T07:53:32.374Z,66.52
2018-08-25T07:56:03.996Z,65.95
2018-08-25T07:58:33.041Z,62.98
2018-08-25T08:01:01.717Z,61.52
2018-08-25T08:03:30.710Z,57.20
2018-08-25T08:06:01.726Z,50.36
2018-08-25T08:08:30.555Z,47.25
2018-08-25T08:10:59.460Z,44.95
2018-08-25T08:13:28.448Z,40.51
2018-08-25T08:15:57.618Z,39.13
2018-08-25T08:18:26.521Z,39.24
2018-08-25T08:20:55.433Z,34.23
2018-08-25T08:23:26.072Z,36.93
2018-08-25T08:25:54.986Z,42.66
2018-08-25T08:28:23.930Z,43.06
2018-08-25T08:30:52.825Z,45.37
2018-08-25T08:33:21.790Z,42.39
2018-08-25T08:35:50.660Z,40.99
2018-08-25T08:38:19.545Z,39.08
2018-08-25T08:40:49.481Z,39.23
2018-08-25T08:43:19.245Z,39.34
2018-08-25T08:45:48.206Z,41.78
2018-08-25T08:48:17.137Z,45.01
2018-08-25T08:50:46.090Z,47.06
2018-08-25T08:53:19.640Z,45.71
2018-08-25T08:55:48.594Z,41.60
2018-08-25T08:58:20.303Z,36.56
2018-08-25T09:00:49.183Z,35.74
2018-08-25T09:03:18.157Z,37.34
2018-08-25T09:05:47.036Z,36.00
2018-08-25T09:08:18.566Z,36.54
2018-08-25T09:10:47.626Z,38.62
2018-08-25T09:13:16.553Z,43.11
2018-08-25T09:15:45.448Z,46.58
2018-08-25T09:18:17.068Z,44.95
2018-08-25T09:20:45.972Z,48.35
2018-08-25T09:23:14.997Z,49.71
2018-08-25T09:25:43.943Z,50.12
2018-08-25T09:28:15.260Z,51.49
2018-08-25T09:30:44.121Z,48.03
2018-08-25T09:33:13.041Z,42.55
2018-08-25T09:35:41.924Z,42.00
2018-08-25T09:38:10.847Z,42.49
2018-08-25T09:40:39.736Z,44.63
2018-08-25T09:43:10.848Z,44.45
2018-08-25T09:45:39.751Z,42.49
2018-08-25T09:48:08.676Z,40.45
2018-08-25T09:50:39.781Z,40.80
2018-08-25T09:53:08.641Z,40.06
2018-08-25T09:55:37.544Z,41.08
2018-08-25T09:58:06.385Z,38.12
2018-08-25T10:00:35.317Z,39.71
2018-08-25T10:03:04.263Z,43.13
2018-08-25T10:05:33.085Z,42.94
2018-08-25T10:08:02.051Z,42.61
2018-08-25T10:10:30.885Z,39.78
2018-08-25T10:12:59.787Z,42.10
2018-08-25T10:15:28.705Z,39.52
2018-08-25T10:17:57.656Z,38.72
2018-08-25T10:20:26.547Z,42.18
2018-08-25T10:22:55.489Z,43.96
2018-08-25T10:25:24.382Z,45.23
2018-08-25T10:27:53.312Z,45.29
2018-08-25T10:30:22.294Z,42.67
2018-08-25T10:32:51.233Z,41.33
2018-08-25T10:35:20.047Z,42.95
2018-08-25T10:37:48.954Z,42.52
2018-08-25T10:40:17.864Z,42.39
2018-08-25T10:42:46.748Z,45.57
2018-08-25T10:45:15.712Z,43.50
2018-08-25T10:47:44.630Z,41.64
2018-08-25T10:50:13.540Z,41.75
2018-08-25T10:52:42.443Z,40.16
2018-08-25T10:55:11.388Z,40.66
2018-08-25T10:57:43.333Z,44.63
2018-08-25T11:00:15.151Z,45.90
2018-08-25T11:02:43.975Z,49.21
2018-08-25T11:05:12.925Z,51.80
2018-08-25T11:07:41.822Z,53.41
2018-08-25T11:10:13.556Z,52.93
2018-08-25T11:12:42.485Z,52.37
2018-08-25T11:15:11.419Z,49.68
2018-08-25T11:17:40.224Z,50.96
2018-08-25T11:20:09.275Z,52.53
2018-08-25T11:22:38.143Z,53.44
2018-08-25T11:25:07.026Z,58.99
2018-08-25T11:27:35.945Z,61.69
2018-08-25T11:30:04.829Z,64.05
2018-08-25T11:32:33.705Z,64.36
2018-08-25T11:35:02.642Z,66.51
2018-08-25T11:37:31.661Z,66.32
2018-08-25T11:40:02.570Z,66.89
2018-08-25T11:42:29.339Z,68.24
2018-08-25T11:44:58.271Z,68.02
2018-08-25T11:47:27.145Z,68.09
2018-08-25T11:49:56.012Z,68.49
2018-08-25T11:52:24.903Z,70.09
2018-08-25T11:54:53.796Z,70.30
2018-08-25T11:57:22.690Z,72.05
2018-08-25T11:59:51.616Z,71.82
2018-08-25T12:02:20.529Z,70.64
2018-08-25T12:04:49.402Z,67.73
2018-08-25T12:07:18.262Z,68.15
2018-08-25T12:09:47.154Z,66.23
2018-08-25T12:12:20.891Z,67.30
2018-08-25T12:14:49.740Z,66.06
2018-08-25T12:17:18.623Z,66.11
2018-08-25T12:19:47.539Z,65.59
2018-08-25T12:22:16.465Z,64.65
2018-08-25T12:24:45.310Z,64.75
2018-08-25T12:27:14.176Z,66.44
2018-08-25T12:29:43.044Z,66.68
2018-08-25T12:32:11.963Z,66.37
2018-08-25T12:34:40.823Z,67.36
2018-08-25T12:37:09.743Z,67.27
2018-08-25T12:39:41.439Z,67.59
2018-08-25T12:42:10.343Z,67.43
2018-08-25T12:44:39.274Z,67.83
2018-08-25T12:47:08.197Z,67.10
2018-08-25T12:49:37.128Z,66.23
2018-08-25T12:52:06.037Z,67.46
2018-08-25T12:54:34.989Z,66.10
2018-08-25T12:57:03.751Z,66.49
2018-08-25T12:59:32.659Z,66.04
2018-08-25T13:02:01.532Z,61.44
2018-08-25T13:04:30.509Z,60.70
2018-08-25T13:06:59.412Z,59.07
2018-08-25T13:09:28.284Z,57.75
2018-08-25T13:12:00.203Z,55.83
2018-08-25T13:14:29.013Z,54.99
2018-08-25T13:16:57.916Z,54.19
2018-08-25T13:19:26.831Z,55.12
2018-08-25T13:21:55.778Z,54.64
2018-08-25T13:24:26.385Z,52.96
2018-08-25T13:26:53.573Z,50.80
2018-08-25T13:29:22.498Z,52.36
2018-08-25T13:31:51.430Z,53.71
2018-08-25T13:34:20.214Z,54.38
2018-08-25T13:36:49.066Z,55.00
2018-08-25T13:39:17.914Z,54.00
2018-08-25T13:41:46.860Z,54.65
2018-08-25T13:44:15.731Z,56.00
2018-08-25T13:46:44.614Z,55.79
2018-08-25T13:49:13.874Z,55.71
2018-08-25T13:51:42.762Z,56.91
2018-08-25T13:54:11.684Z,56.78
2018-08-25T13:56:40.554Z,56.69
2018-08-25T13:59:09.391Z,56.12
2018-08-25T14:01:40.777Z,56.21
2018-08-25T14:04:09.664Z,54.58
2018-08-25T14:06:38.621Z,55.13
2018-08-25T14:09:08.092Z,56.95
2018-08-25T14:11:37.076Z,53.30
2018-08-25T14:14:06.005Z,52.29
2018-08-25T14:16:35.046Z,53.17
2018-08-25T14:19:03.887Z,56.24
2018-08-25T14:21:32.799Z,57.35
2018-08-25T14:24:04.318Z,58.15
2018-08-25T14:26:33.348Z,59.28
2018-08-25T14:29:02.280Z,61.65
2018-08-25T14:31:31.206Z,62.76
2018-08-25T14:34:00.234Z,62.44
2018-08-25T14:36:29.079Z,62.45
2018-08-25T14:38:57.988Z,63.51
2018-08-25T14:41:26.897Z,63.22
2018-08-25T14:43:55.739Z,62.48
2018-08-25T14:46:24.673Z,62.03
2018-08-25T14:48:53.587Z,62.32
2018-08-25T14:51:22.489Z,61.92
2018-08-25T14:53:51.381Z,61.49
2018-08-25T14:56:20.337Z,60.10
2018-08-25T14:58:49.174Z,60.73
2018-08-25T15:01:18.040Z,60.61
2018-08-25T15:03:49.913Z,61.12
2018-08-25T15:06:18.791Z,62.14
2018-08-25T15:08:49.746Z,63.42
2018-08-25T15:11:18.737Z,63.76
2018-08-25T15:13:47.611Z,64.25
2018-08-25T15:16:16.558Z,63.40
2018-08-25T15:18:45.560Z,61.03
2018-08-25T15:21:14.512Z,62.84
2018-08-25T15:23:43.387Z,61.83
2018-08-25T15:26:12.277Z,60.96
2018-08-25T15:28:41.174Z,59.67
2018-08-25T15:31:12.602Z,58.33
2018-08-25T15:33:41.522Z,58.86
2018-08-25T15:36:10.436Z,59.53
2018-08-25T15:38:39.413Z,59.20
2018-08-25T15:41:08.287Z,58.11
2018-08-25T15:43:37.207Z,59.12
2018-08-25T15:46:06.167Z,60.16
2018-08-25T15:48:35.075Z,59.86
2018-08-25T15:51:04.046Z,59.37
2018-08-25T15:53:32.972Z,59.52
2018-08-25T15:56:01.899Z,60.11
2018-08-25T15:58:30.775Z,60.34
2018-08-25T16:00:59.730Z,60.53
2018-08-25T16:03:28.553Z,61.26
2018-08-25T16:05:57.518Z,62.35
2018-08-25T16:08:26.394Z,62.73
2018-08-25T16:10:55.300Z,62.92
2018-08-25T16:13:24.260Z,60.32
2018-08-25T16:15:53.375Z,56.78
2018-08-25T16:18:22.263Z,53.98
2018-08-25T16:20:51.187Z,56.26
2018-08-25T16:23:20.084Z,59.60
2018-08-25T16:25:49.032Z,61.87
2018-08-25T16:28:18.004Z,62.47
2018-08-25T16:30:46.828Z,62.47
2018-08-25T16:33:15.748Z,64.76
2018-08-25T16:35:44.594Z,65.64
2018-08-25T16:38:13.516Z,66.30
2018-08-25T16:40:42.498Z,65.59
2018-08-25T16:43:11.602Z,66.83
2018-08-25T16:45:40.475Z,68.30
2018-08-25T16:48:09.357Z,67.81
2018-08-25T16:50:38.327Z,70.05
2018-08-25T16:53:07.174Z,70.57
2018-08-25T16:55:36.092Z,69.37
2018-08-25T16:58:05.088Z,70.61
2018-08-25T17:00:34.050Z,69.17
2018-08-25T17:03:02.991Z,68.82
2018-08-25T17:05:31.882Z,69.21
2018-08-25T17:08:00.753Z,67.41
2018-08-25T17:10:29.714Z,68.17
2018-08-25T17:12:58.949Z,67.11
2018-08-25T17:15:28.240Z,66.77
2018-08-25T17:17:57.150Z,66.17
2018-08-25T17:20:26.374Z,67.33
2018-08-25T17:22:55.348Z,67.72
2018-08-25T17:25:24.294Z,67.16
2018-08-25T17:27:53.186Z,68.03
2018-08-25T17:30:22.154Z,69.07
2018-08-25T17:32:51.082Z,69.58
2018-08-25T17:35:20.036Z,68.93
2018-08-25T17:37:49.027Z,69.16
2018-08-25T17:40:17.985Z,69.44
2018-08-25T17:42:46.955Z,69.55
2018-08-25T17:45:15.929Z,69.67
2018-08-25T17:47:44.809Z,69.96
2018-08-25T17:50:15.755Z,70.05
2018-08-25T17:52:42.678Z,70.55
2018-08-25T17:55:11.594Z,71.09
2018-08-25T17:57:40.631Z,71.48
2018-08-25T18:00:11.414Z,71.88
2018-08-25T18:02:38.419Z,72.55
2018-08-25T18:05:10.129Z,72.82
2018-08-25T18:07:36.148Z,73.42
2018-08-25T18:10:05.051Z,73.38
2018-08-25T18:12:37.022Z,73.98
2018-08-25T18:15:02.938Z,73.72
2018-08-25T18:17:31.883Z,74.44
2018-08-25T18:20:00.857Z,74.46
2018-08-25T18:22:29.782Z,74.81
2018-08-25T18:24:58.687Z,75.31
2018-08-25T18:27:27.642Z,75.19
2018-08-25T18:29:59.122Z,75.08
2018-08-25T18:32:25.592Z,74.87
2018-08-25T18:34:56.152Z,75.36
2018-08-25T18:37:23.403Z,75.18
2018-08-25T18:39:54.555Z,75.22
2018-08-25T18:42:23.471Z,75.12
2018-08-25T18:44:52.430Z,75.08
2018-08-25T18:47:21.864Z,75.60
2018-08-25T18:49:55.332Z,75.40
2018-08-25T18:52:24.196Z,76.10
2018-08-25T18:54:51.594Z,75.85
2018-08-25T18:57:20.345Z,75.49
2018-08-25T18:59:49.305Z,74.90
2018-08-25T19:02:20.836Z,74.67
2018-08-25T19:04:52.275Z,74.17
2018-08-25T19:07:21.261Z,73.97
2018-08-25T19:09:50.096Z,73.43
2018-08-25T19:12:19.041Z,73.84
2018-08-25T19:14:47.983Z,74.13
2018-08-25T19:17:22.012Z,73.89
2018-08-25T19:19:50.890Z,74.43
2018-08-25T19:22:19.837Z,74.61
2018-08-25T19:24:49.063Z,74.63
2018-08-25T19:27:18.147Z,71.98
2018-08-25T19:29:46.998Z,73.65
2018-08-25T19:32:15.896Z,74.17
2018-08-25T19:34:47.484Z,74.45
2018-08-25T19:37:20.526Z,74.73
2018-08-25T19:39:49.430Z,75.62
2018-08-25T19:42:18.317Z,75.90
2018-08-25T19:44:47.200Z,76.07
2018-08-25T19:47:16.117Z,75.73
2018-08-25T19:49:45.116Z,76.13
2018-08-25T19:52:14.040Z,76.41
2018-08-25T19:54:42.971Z,76.39
2018-08-25T19:57:11.892Z,76.38
2018-08-25T19:59:40.712Z,76.40
2018-08-25T20:02:09.677Z,76.57
2018-08-25T20:04:38.584Z,76.71
2018-08-25T20:07:07.544Z,76.97
2018-08-25T20:09:36.506Z,77.23
2018-08-25T20:12:05.384Z,77.49
2018-08-25T20:14:34.326Z,77.59
2018-08-25T20:17:05.786Z,77.25
2018-08-25T20:19:34.684Z,77.15
2018-08-25T20:22:03.653Z,77.10
2018-08-25T20:24:32.586Z,77.20
2018-08-25T20:27:01.572Z,76.99
2018-08-25T20:29:30.432Z,77.30
2018-08-25T20:31:59.451Z,77.46
2018-08-25T20:34:28.353Z,77.55
2018-08-25T20:36:59.476Z,77.60
2018-08-25T20:39:28.455Z,77.53
2018-08-25T20:41:57.287Z,77.62
2018-08-25T20:44:26.178Z,77.39
2018-08-25T20:46:55.136Z,77.58
2018-08-25T20:49:24.056Z,77.37
2018-08-25T20:51:52.992Z,77.47
2018-08-25T20:54:21.996Z,77.20
2018-08-25T20:56:50.838Z,76.66
2018-08-25T20:59:22.586Z,76.89
2018-08-25T21:01:54.325Z,76.99
2018-08-25T21:04:23.221Z,76.72
2018-08-25T21:06:52.182Z,76.96
2018-08-25T21:09:21.048Z,77.38
2018-08-25T21:11:49.969Z,77.35
2018-08-25T21:14:18.932Z,77.28
2018-08-25T21:16:47.840Z,76.99
2018-08-25T21:19:16.776Z,77.39
2018-08-25T21:21:45.787Z,77.66
2018-08-25T21:24:14.777Z,77.57
2018-08-25T21:26:43.711Z,77.89
2018-08-25T21:29:15.715Z,78.14
2018-08-25T21:31:44.645Z,78.24
2018-08-25T21:34:13.612Z,78.30
2018-08-25T21:36:42.481Z,78.51
2018-08-25T21:39:13.797Z,78.57
2018-08-25T21:41:42.890Z,78.62
2018-08-25T21:44:11.771Z,78.79
2018-08-25T21:46:40.715Z,78.97
2018-08-25T21:49:09.659Z,78.96
2018-08-25T21:51:40.693Z,78.71
2018-08-25T21:54:07.547Z,78.55
2018-08-25T21:56:36.389Z,78.54
2018-08-25T21:59:05.382Z,78.07
2018-08-25T22:01:57.087Z,76.79
2018-08-25T22:04:26.591Z,77.57
2018-08-25T22:06:56.125Z,77.56
2018-08-25T22:09:25.025Z,77.53
2018-08-25T22:11:56.029Z,77.87
2018-08-25T22:14:23.119Z,78.21
2018-08-25T22:16:51.950Z,77.98
2018-08-25T22:19:20.912Z,78.09
2018-08-25T22:21:49.799Z,77.92
2018-08-25T22:24:18.720Z,77.75
2018-08-25T22:26:47.700Z,77.98
2018-08-25T22:29:16.663Z,77.82
2018-08-25T22:31:45.649Z,78.07
2018-08-25T22:34:14.686Z,78.06
2018-08-25T22:36:43.659Z,78.05
2018-08-25T22:39:13.188Z,78.43
2018-08-25T22:41:42.300Z,78.28
2018-08-25T22:44:11.481Z,78.32
2018-08-25T22:46:40.421Z,78.33
2018-08-25T22:49:11.628Z,78.52
2018-08-25T22:51:40.578Z,78.35
2018-08-25T22:54:09.429Z,78.47
2018-08-25T22:56:38.307Z,78.39
2018-08-25T22:59:07.320Z,78.47
2018-08-25T23:01:36.232Z,78.41
2018-08-25T23:04:05.042Z,78.66
2018-08-25T23:06:33.922Z,78.57
2018-08-25T23:09:02.792Z,78.77
2018-08-25T23:11:34.884Z,78.87
2018-08-25T23:14:03.747Z,79.14
2018-08-25T23:16:32.755Z,79.03
2018-08-25T23:19:01.579Z,79.20
2018-08-25T23:21:30.540Z,79.06
2018-08-25T23:23:59.872Z,79.21
2018-08-25T23:26:28.892Z,79.33
2018-08-25T23:28:57.800Z,79.21
2018-08-25T23:31:26.727Z,79.42
2018-08-25T23:33:55.832Z,79.61
2018-08-25T23:36:24.884Z,79.65
2018-08-25T23:38:53.701Z,79.58
2018-08-25T23:41:22.618Z,79.50
2018-08-25T23:43:51.552Z,79.77
2018-08-25T23:46:22.559Z,79.85
2018-08-25T23:48:49.386Z,79.79
2018-08-25T23:51:18.278Z,80.01
2018-08-25T23:53:47.247Z,79.95
2018-08-25T23:56:16.169Z,80.08
2018-08-25T23:58:45.173Z,79.92
